Time;durP1;ratioP1;P1;durP2;ratioP2;P2;SDS_P1;SDS_P2;PMS_P1;PMS_P2;Temp;Humidity;BMP_temperature;BMP_pressure;BME280_temperature;BME280_humidity;BME280_pressure;Samples;Min_cycle;Max_cycle;Signal;HPM_P1;HPM_P2
2022/10/25 00:00:26;;;;;;;;;;;11.00;99.90;;;;;;5018086;28;19933;-89
2022/10/25 00:02:52;;;;;;;;;;;11.00;99.90;;;;;;5033179;28;20035;-88
2022/10/25 00:05:23;;;;;;;;;;;11.60;99.90;;;;;;5025585;28;19997;-88
2022/10/25 00:07:48;;;;;;;;;;;11.10;99.90;;;;;;5015989;28;19933;-88
2022/10/25 00:10:17;;;;;;;;;;;11.00;99.90;;;;;;5014877;28;19932;-89
2022/10/25 00:12:45;;;;;;;;;;;10.90;99.90;;;;;;5018675;28;19969;-89
2022/10/25 00:15:12;;;;;;;;;;;10.90;99.90;;;;;;5017559;28;19929;-89
2022/10/25 00:17:37;;;;;;;;;;;11.40;99.90;;;;;;5016715;28;19931;-89
2022/10/25 00:20:05;;;;;;;;;;;11.20;99.90;;;;;;5017717;28;20023;-89
2022/10/25 00:22:31;;;;;;;;;;;11.40;99.90;;;;;;5016317;28;19929;-89
2022/10/25 00:24:57;;;;;;;;;;;13.10;99.90;;;;;;5013821;28;19929;-89
2022/10/25 00:27:23;;;;;;;;;;;11.60;99.90;;;;;;5017054;28;19932;-89
2022/10/25 00:29:51;;;;;;;;;;;11.20;99.90;;;;;;5018369;28;19932;-88
2022/10/25 00:32:17;;;;;;;;;;;12.40;99.90;;;;;;5024014;28;20004;-90
2022/10/25 00:34:42;;;;;;;;;;;11.10;99.90;;;;;;5041494;28;19909;-89
2022/10/25 00:37:17;;;;;;;;;;;11.10;99.90;;;;;;5038047;28;19917;-91
2022/10/25 00:39:46;;;;;;;;;;;11.10;99.90;;;;;;5038842;28;19925;-89
2022/10/25 00:42:14;;;;;;;;;;;12.80;99.90;;;;;;5035921;28;19952;-89
2022/10/25 00:44:40;;;;;;;;;;;9.90;99.90;;;;;;5036935;28;20031;-89
2022/10/25 00:47:05;;;;;;;;;;;11.20;99.90;;;;;;5050992;28;20075;-89
2022/10/25 00:49:32;;;;;;;;;;;11.10;99.90;;;;;;5048058;28;19935;-87
2022/10/25 00:52:01;;;;;;;;;;;11.70;99.90;;;;;;5028471;28;19924;-89
2022/10/25 00:54:30;;;;;;;;;;;9.80;99.90;;;;;;5020882;28;19933;-88
2022/10/25 00:56:57;;;;;;;;;;;10.50;99.90;;;;;;5017331;28;20404;-89
2022/10/25 00:59:25;;;;;;;;;;;11.50;99.90;;;;;;5016885;28;20297;-89
2022/10/25 01:02:00;;;;;;;;;;;11.40;99.90;;;;;;5014302;28;20013;-89
2022/10/25 01:04:30;;;;;;;;;;;11.30;99.90;;;;;;5032136;28;19925;-88
2022/10/25 01:06:56;;;;;;;;;;;11.40;99.90;;;;;;5021233;28;19925;-91
2022/10/25 01:09:29;;;;;;;;;;;11.60;99.90;;;;;;5032320;28;19925;-88
2022/10/25 01:11:57;;;;;;;;;;;11.60;99.90;;;;;;5016081;28;20393;-88
2022/10/25 01:14:23;;;;;;;;;;;11.70;99.90;;;;;;5014103;28;20429;-89
2022/10/25 01:16:48;;;;;;;;;;;9.80;99.90;;;;;;5016185;28;19968;-89
2022/10/25 01:19:23;;;;;;;;;;;11.30;99.90;;;;;;5013138;28;20023;-89
2022/10/25 01:22:18;;;;;;;;;;;11.70;99.90;;;;;;5029912;28;19925;-89
2022/10/25 01:24:47;;;;;;;;;;;11.80;99.90;;;;;;5001073;28;19975;-89
2022/10/25 01:27:29;;;;;;;;;;;11.70;99.90;;;;;;5016489;28;19925;-89
2022/10/25 01:30:06;;;;;;;;;;;11.50;99.90;;;;;;5016521;28;19933;-88
2022/10/25 01:32:53;;;;;;;;;;;9.90;99.90;;;;;;5022129;28;19972;-89
2022/10/25 01:35:21;;;;;;;;;;;11.80;99.90;;;;;;5014405;28;19936;-88
2022/10/25 01:37:53;;;;;;;;;;;12.00;99.90;;;;;;5015429;28;19952;-88
2022/10/25 01:40:22;;;;;;;;;;;11.60;99.90;;;;;;5013590;28;19932;-88
2022/10/25 01:42:58;;;;;;;;;;;12.00;99.90;;;;;;5024194;28;19991;-87
2022/10/25 01:45:37;;;;;;;;;;;11.70;99.90;;;;;;5026197;28;20369;-88
2022/10/25 01:48:25;;;;;;;;;;;10.40;99.90;;;;;;5027279;28;20052;-89
2022/10/25 01:50:51;;;;;;;;;;;11.80;99.90;;;;;;5023739;28;19929;-88
2022/10/25 01:53:17;;;;;;;;;;;11.90;99.90;;;;;;5017453;28;20292;-89
2022/10/25 01:55:47;;;;;;;;;;;12.00;99.90;;;;;;5032861;28;19925;-88
2022/10/25 01:58:32;;;;;;;;;;;11.90;99.90;;;;;;5015657;28;19926;-88
2022/10/25 02:01:03;;;;;;;;;;;12.00;99.90;;;;;;5016164;28;20019;-88
2022/10/25 02:03:32;;;;;;;;;;;11.90;99.90;;;;;;5015417;28;19972;-88
2022/10/25 02:06:09;;;;;;;;;;;11.90;99.90;;;;;;5016136;28;20332;-88
2022/10/25 02:08:56;;;;;;;;;;;12.60;99.90;;;;;;5014334;28;19929;-88
2022/10/25 02:11:32;;;;;;;;;;;11.90;99.90;;;;;;5015987;28;19936;-89
2022/10/25 02:14:16;;;;;;;;;;;9.80;99.90;;;;;;5015327;28;19948;-89
2022/10/25 02:16:42;;;;;;;;;;;12.30;99.90;;;;;;5014634;28;20346;-88
2022/10/25 02:19:19;;;;;;;;;;;11.90;99.90;;;;;;5012607;28;19982;-88
2022/10/25 02:21:46;;;;;;;;;;;11.90;99.90;;;;;;5015816;28;19936;-89
2022/10/25 02:24:20;;;;;;;;;;;12.10;99.90;;;;;;5014114;28;19982;-88
2022/10/25 02:26:46;;;;;;;;;;;11.80;99.90;;;;;;5009915;28;19975;-87
2022/10/25 02:29:13;;;;;;;;;;;11.70;99.90;;;;;;5010873;28;20370;-88
2022/10/25 02:31:42;;;;;;;;;;;11.80;99.90;;;;;;5019422;28;19975;-88
2022/10/25 02:34:08;;;;;;;;;;;10.00;99.90;;;;;;5018763;28;19925;-90
2022/10/25 02:36:34;;;;;;;;;;;11.90;99.90;;;;;;5019684;28;20063;-87
2022/10/25 02:39:01;;;;;;;;;;;12.10;99.90;;;;;;5034753;28;19929;-87
2022/10/25 02:41:26;;;;;;;;;;;11.90;99.90;;;;;;5019020;28;20384;-88
2022/10/25 02:43:52;;;;;;;;;;;11.90;99.90;;;;;;5018924;28;19929;-88
2022/10/25 02:46:19;;;;;;;;;;;12.20;99.90;;;;;;5019220;28;20428;-88
2022/10/25 02:48:45;;;;;;;;;;;12.20;99.90;;;;;;5018454;28;20337;-88
2022/10/25 02:51:17;;;;;;;;;;;12.10;99.90;;;;;;5035577;28;19929;-88
2022/10/25 02:53:43;;;;;;;;;;;12.30;99.90;;;;;;5018443;28;20067;-88
2022/10/25 02:56:10;;;;;;;;;;;12.70;99.90;;;;;;5021345;28;20004;-88
2022/10/25 02:58:39;;;;;;;;;;;12.00;99.90;;;;;;5018949;28;19948;-87
2022/10/25 03:01:05;;;;;;;;;;;12.30;99.90;;;;;;5035424;28;19931;-88
2022/10/25 03:03:34;;;;;;;;;;;12.60;99.90;;;;;;5018577;28;19928;-88
2022/10/25 03:06:02;;;;;;;;;;;12.00;99.90;;;;;;5018649;28;20370;-88
2022/10/25 03:08:30;;;;;;;;;;;14.80;99.90;;;;;;5018090;28;19948;-88
2022/10/25 03:10:56;;;;;;;;;;;12.10;99.90;;;;;;5019500;28;19925;-88
2022/10/25 03:13:24;;;;;;;;;;;10.60;99.90;;;;;;5034948;28;20297;-88
2022/10/25 03:15:55;;;;;;;;;;;12.00;99.90;;;;;;5035055;28;19971;-88
2022/10/25 03:18:21;;;;;;;;;;;11.90;99.90;;;;;;5019074;28;19929;-87
2022/10/25 03:20:47;;;;;;;;;;;12.20;99.90;;;;;;5024161;28;19971;-89
2022/10/25 03:23:16;;;;;;;;;;;10.20;99.90;;;;;;5033960;28;20369;-88
2022/10/25 03:25:42;;;;;;;;;;;12.00;99.90;;;;;;5018308;28;20025;-87
2022/10/25 03:28:10;;;;;;;;;;;11.90;99.90;;;;;;5018561;28;19969;-88
2022/10/25 03:30:38;;;;;;;;;;;11.80;99.90;;;;;;5018932;28;19937;-87
2022/10/25 03:33:06;;;;;;;;;;;11.90;99.90;;;;;;5017526;28;19929;-88
2022/10/25 03:35:31;;;;;;;;;;;11.80;99.90;;;;;;4998797;28;19925;-89
2022/10/25 03:37:57;;;;;;;;;;;11.90;99.90;;;;;;5010005;28;19932;-88
2022/10/25 03:40:25;;;;;;;;;;;11.70;99.90;;;;;;5017871;28;19932;-88
2022/10/25 03:42:51;;;;;;;;;;;11.80;99.90;;;;;;5017866;28;20440;-89
2022/10/25 03:45:17;;;;;;;;;;;11.70;99.90;;;;;;5018393;28;19972;-88
2022/10/25 03:47:42;;;;;;;;;;;11.70;99.90;;;;;;5017659;28;20270;-88
2022/10/25 03:50:10;;;;;;;;;;;12.10;99.90;;;;;;5032592;28;19925;-88
2022/10/25 03:52:36;;;;;;;;;;;11.80;99.90;;;;;;5016213;28;19979;-88
2022/10/25 03:55:03;;;;;;;;;;;11.90;99.90;;;;;;5017812;28;19964;-88
2022/10/25 03:57:28;;;;;;;;;;;12.40;99.90;;;;;;5017154;28;20015;-88
2022/10/25 04:00:01;;;;;;;;;;;12.00;99.90;;;;;;5017761;28;20008;-88
2022/10/25 04:02:27;;;;;;;;;;;11.70;99.90;;;;;;5016821;28;20401;-88
2022/10/25 04:04:55;;;;;;;;;;;11.90;99.90;;;;;;5017181;28;19975;-88
2022/10/25 04:07:21;;;;;;;;;;;11.60;99.90;;;;;;5017095;28;19929;-90
2022/10/25 04:09:46;;;;;;;;;;;12.00;99.90;;;;;;5033460;28;20043;-88
2022/10/25 04:12:12;;;;;;;;;;;12.10;99.90;;;;;;5016677;28;19925;-88
2022/10/25 04:14:41;;;;;;;;;;;9.80;99.90;;;;;;5017437;28;19925;-90
2022/10/25 04:17:09;;;;;;;;;;;14.10;99.90;;;;;;5017614;28;19933;-89
2022/10/25 04:19:37;;;;;;;;;;;11.80;99.90;;;;;;5020689;28;19979;-88
2022/10/25 04:22:03;;;;;;;;;;;11.60;99.90;;;;;;5033582;28;20285;-89
2022/10/25 04:24:29;;;;;;;;;;;11.60;99.90;;;;;;5016052;28;19925;-88
2022/10/25 04:26:55;;;;;;;;;;;11.90;99.90;;;;;;5017545;28;19996;-88
2022/10/25 04:29:21;;;;;;;;;;;9.40;99.90;;;;;;5016663;28;19969;-90
2022/10/25 04:31:50;;;;;;;;;;;13.20;99.90;;;;;;5017326;28;19930;-89
2022/10/25 04:34:24;;;;;;;;;;;9.70;99.90;;;;;;5002176;28;19925;-88
2022/10/25 04:36:52;;;;;;;;;;;11.60;99.90;;;;;;5020906;28;19979;-88
2022/10/25 04:39:18;;;;;;;;;;;11.60;99.90;;;;;;5013971;28;20020;-88
2022/10/25 04:41:44;;;;;;;;;;;11.50;99.90;;;;;;5008238;28;20167;-88
2022/10/25 04:44:09;;;;;;;;;;;12.60;99.90;;;;;;5016488;28;19925;-88
2022/10/25 04:46:40;;;;;;;;;;;12.70;99.90;;;;;;5017182;28;19979;-89
2022/10/25 04:49:12;;;;;;;;;;;11.90;99.90;;;;;;5021403;28;19925;-88
2022/10/25 04:51:38;;;;;;;;;;;10.00;99.90;;;;;;5020541;28;20011;-89
2022/10/25 04:54:04;;;;;;;;;;;11.60;99.90;;;;;;5018532;28;19972;-88
2022/10/25 04:56:32;;;;;;;;;;;11.90;99.90;;;;;;5019201;28;20336;-89
2022/10/25 04:58:58;;;;;;;;;;;11.60;99.90;;;;;;5033264;28;19932;-89
2022/10/25 05:01:24;;;;;;;;;;;11.90;99.90;;;;;;5015514;28;20012;-88
2022/10/25 05:03:52;;;;;;;;;;;11.70;99.90;;;;;;5016078;28;19925;-87
2022/10/25 05:06:21;;;;;;;;;;;11.60;99.90;;;;;;5000390;28;19960;-89
2022/10/25 05:08:50;;;;;;;;;;;11.60;99.90;;;;;;5015722;28;20014;-89
2022/10/25 05:11:18;;;;;;;;;;;11.70;99.90;;;;;;5020188;28;19925;-88
2022/10/25 05:13:44;;;;;;;;;;;11.80;99.90;;;;;;5015929;28;19925;-89
2022/10/25 05:16:35;;;;;;;;;;;11.80;99.90;;;;;;5016867;28;19932;-88
2022/10/25 05:19:00;;;;;;;;;;;10.60;99.90;;;;;;5031775;28;20396;-87
2022/10/25 05:21:34;;;;;;;;;;;10.60;99.90;;;;;;5016986;28;20339;-89
2022/10/25 05:23:59;;;;;;;;;;;12.80;99.90;;;;;;5026169;28;19929;-88
2022/10/25 05:26:25;;;;;;;;;;;11.90;99.90;;;;;;5013560;28;19925;-88
2022/10/25 05:28:52;;;;;;;;;;;12.00;99.90;;;;;;5015980;28;19935;-89
2022/10/25 05:31:19;;;;;;;;;;;11.90;99.90;;;;;;5015023;28;19976;-88
2022/10/25 05:33:49;;;;;;;;;;;11.90;99.90;;;;;;5015030;28;20001;-89
2022/10/25 05:36:32;;;;;;;;;;;10.40;99.90;;;;;;5033029;28;20261;-90
2022/10/25 05:39:06;;;;;;;;;;;12.00;99.90;;;;;;5015429;28;20018;-88
2022/10/25 05:41:32;;;;;;;;;;;13.50;99.90;;;;;;5035894;28;19957;-89
2022/10/25 05:43:58;;;;;;;;;;;12.10;99.90;;;;;;5015783;28;19976;-87
2022/10/25 05:46:24;;;;;;;;;;;12.10;99.90;;;;;;5016469;28;20331;-87
2022/10/25 05:48:58;;;;;;;;;;;12.10;99.90;;;;;;5009195;28;19925;-88
2022/10/25 05:51:30;;;;;;;;;;;12.00;99.90;;;;;;5008105;28;19980;-89
2022/10/25 05:54:07;;;;;;;;;;;12.30;99.90;;;;;;5010528;28;19925;-89
2022/10/25 05:56:36;;;;;;;;;;;12.30;99.90;;;;;;5002911;28;20439;-88
2022/10/25 06:12:46;;;;;;;;;;;10.80;99.90;;;;;;5025380;23;19940;-93
2022/10/25 06:15:12;;;;;;;;;;;9.90;99.90;;;;;;5023989;28;19957;-95
2022/10/25 06:17:38;;;;;;;;;;;11.60;99.90;;;;;;5026663;28;19929;-93
2022/10/25 06:20:03;;;;;;;;;;;11.60;99.90;;;;;;5026380;28;19929;-93
2022/10/25 06:22:29;;;;;;;;;;;11.60;99.90;;;;;;5026015;28;20016;-92
2022/10/25 06:24:54;;;;;;;;;;;11.60;99.90;;;;;;5008892;28;19956;-93
2022/10/25 06:27:20;;;;;;;;;;;11.60;99.90;;;;;;5025080;28;19968;-93
2022/10/25 06:29:46;;;;;;;;;;;11.70;99.90;;;;;;5009772;28;20012;-94
2022/10/25 06:32:11;;;;;;;;;;;11.70;99.90;;;;;;5040009;28;19925;-93
2022/10/25 06:34:37;;;;;;;;;;;11.70;99.90;;;;;;5009129;28;19932;-94
2022/10/25 06:37:02;;;;;;;;;;;11.70;99.90;;;;;;5039191;28;19929;-92
2022/10/25 06:39:28;;;;;;;;;;;11.70;99.90;;;;;;5041459;28;19971;-93
2022/10/25 06:41:54;;;;;;;;;;;11.70;99.90;;;;;;5017466;28;19925;-95
2022/10/25 06:44:19;;;;;;;;;;;11.60;99.90;;;;;;5022723;28;19925;-93
2022/10/25 06:46:45;;;;;;;;;;;11.70;99.90;;;;;;5008541;28;20036;-91
2022/10/25 06:49:10;;;;;;;;;;;11.60;99.90;;;;;;5023438;28;20020;-91
2022/10/25 06:51:36;;;;;;;;;;;11.60;99.90;;;;;;5025313;28;19925;-91
2022/10/25 06:54:08;;;;;;;;;;;11.60;99.90;;;;;;5006520;28;19935;-93
2022/10/25 06:56:34;;;;;;;;;;;11.70;99.90;;;;;;5041523;28;19952;-93
2022/10/25 06:58:59;;;;;;;;;;;11.70;99.90;;;;;;5007324;28;20364;-93
2022/10/25 07:01:25;;;;;;;;;;;11.70;99.90;;;;;;5024920;28;19925;-94
2022/10/25 07:03:52;;;;;;;;;;;11.80;99.90;;;;;;5024411;28;19955;-91
2022/10/25 07:06:21;;;;;;;;;;;11.80;99.90;;;;;;5023193;28;19977;-91
2022/10/25 07:08:46;;;;;;;;;;;11.80;99.90;;;;;;5041248;28;19925;-92
2022/10/25 07:11:16;;;;;;;;;;;11.80;99.90;;;;;;5023254;28;19936;-93
2022/10/25 07:13:42;;;;;;;;;;;11.80;99.90;;;;;;5020347;28;20024;-91
2022/10/25 07:16:09;;;;;;;;;;;11.80;99.90;;;;;;5041870;28;19925;-92
2022/10/25 07:18:35;;;;;;;;;;;11.90;99.90;;;;;;5043424;28;20393;-92
2022/10/25 07:21:05;;;;;;;;;;;11.90;99.90;;;;;;5027145;28;19981;-94
2022/10/25 07:23:30;;;;;;;;;;;11.90;99.90;;;;;;5035622;28;19921;-92
2022/10/25 07:25:56;;;;;;;;;;;11.90;99.90;;;;;;5027382;28;19948;-92
2022/10/25 07:28:22;;;;;;;;;;;11.90;99.90;;;;;;5021400;28;19925;-92
2022/10/25 07:30:48;;;;;;;;;;;11.90;99.90;;;;;;5043521;28;19925;-95
2022/10/25 07:33:14;;;;;;;;;;;11.90;99.90;;;;;;5025872;28;19929;-94
2022/10/25 07:35:43;;;;;;;;;;;11.80;99.90;;;;;;5027821;28;19925;-94
2022/10/25 07:38:08;;;;;;;;;;;11.80;99.90;;;;;;5023324;28;19932;-95
2022/10/25 07:40:34;;;;;;;;;;;11.80;99.90;;;;;;5022780;28;19925;-93
2022/10/25 07:43:00;;;;;;;;;;;11.80;99.90;;;;;;5011112;28;19968;-94
2022/10/25 07:45:25;;;;;;;;;;;11.80;99.90;;;;;;5009858;28;20012;-94
2022/10/25 07:47:51;;;;;;;;;;;11.80;99.90;;;;;;5043854;28;19925;-92
2022/10/25 07:50:18;;;;;;;;;;;11.80;99.90;;;;;;5042512;28;20487;-93
2022/10/25 07:52:44;;;;;;;;;;;11.80;99.90;;;;;;5043233;28;19929;-93
2022/10/25 07:55:12;;;;;;;;;;;11.90;99.90;;;;;;5026496;28;19997;-95
2022/10/25 07:57:38;;;;;;;;;;;11.90;99.90;;;;;;5061380;28;19921;-94
2022/10/25 08:00:05;;;;;;;;;;;11.90;99.90;;;;;;5024240;28;19929;-95
2022/10/25 08:02:30;;;;;;;;;;;12.00;99.90;;;;;;5008647;28;19926;-93
2022/10/25 08:04:56;;;;;;;;;;;12.00;99.90;;;;;;5015146;28;19926;-96
2022/10/25 08:07:21;;;;;;;;;;;12.00;99.90;;;;;;4998199;28;19926;-95
2022/10/25 08:09:47;;;;;;;;;;;11.60;99.90;;;;;;4999074;28;19952;-95
2022/10/25 08:12:13;;;;;;;;;;;12.10;99.90;;;;;;5021238;28;19925;-94
2022/10/25 08:14:38;;;;;;;;;;;12.10;99.90;;;;;;5046968;28;19925;-95
2022/10/25 08:17:06;;;;;;;;;;;12.20;99.90;;;;;;5095138;22;19992;-88
2022/10/25 08:19:35;;;;;;;;;;;11.80;99.90;;;;;;5036955;28;19925;-89
2022/10/25 08:22:23;;;;;;;;;;;12.30;99.90;;;;;;5035890;28;19940;-88
2022/10/25 08:24:59;;;;;;;;;;;;;;;;;;;;;
2022/10/25 08:27:25;;;;;;;;;;;12.50;99.90;;;;;;5049669;28;19931;-88
2022/10/25 08:30:11;;;;;;;;;;;11.10;99.90;;;;;;5036090;28;20242;-88
2022/10/25 08:32:45;;;;;;;;;;;11.20;99.90;;;;;;5041495;28;19951;-89
2022/10/25 08:45:15;;;;;;;;;;;11.20;99.90;;;;;;4955972;28;19982;-89
2022/10/25 08:59:21;;;;;;;;;;;14.40;99.90;;;;;;4924631;29;19922;-91
2022/10/25 09:22:01;;;;;;;;;;;15.90;99.90;;;;;;4907335;29;19931;-88
2022/10/25 09:24:36;;;;;;;;;;;13.70;99.90;;;;;;4930994;29;20425;-87
2022/10/25 09:27:02;;;;;;;;;;;13.10;99.90;;;;;;4921710;29;19927;-88
2022/10/25 09:29:38;;;;;;;;;;;14.10;99.90;;;;;;4953478;28;20394;-90
2022/10/25 09:39:31;;;;;;;;;;;14.10;99.90;;;;;;4999286;28;19960;-89
2022/10/25 09:52:24;;;;;;;;;;;15.00;99.90;;;;;;4926200;29;20403;-88
2022/10/25 09:55:14;;;;;;;;;;;13.90;99.90;;;;;;4988732;28;19933;-89
2022/10/25 09:57:41;;;;;;;;;;;15.20;99.90;;;;;;5012568;28;20402;-89
2022/10/25 10:00:13;;;;;;;;;;;13.90;99.90;;;;;;5007394;28;19951;-87
2022/10/25 10:02:41;;;;;;;;;;;13.90;99.90;;;;;;5014178;28;20288;-88
2022/10/25 10:05:14;;;;;;;;;;;14.30;99.90;;;;;;4998652;28;19979;-93
2022/10/25 10:07:42;;;;;;;;;;;16.50;99.90;;;;;;5012742;28;19929;-88
2022/10/25 10:10:10;;;;;;;;;;;14.30;99.90;;;;;;5013039;28;19936;-87
2022/10/25 10:12:50;;;;;;;;;;;14.50;99.90;;;;;;5026861;28;19925;-88
2022/10/25 10:15:21;;;;;;;;;;;14.80;99.90;;;;;;5012621;28;19960;-88
2022/10/25 10:18:02;;;;;;;;;;;12.70;99.90;;;;;;5012376;28;19931;-87
2022/10/25 10:20:30;;;;;;;;;;;16.50;99.90;;;;;;5029802;28;20265;-87
2022/10/25 10:22:56;;;;;;;;;;;14.30;99.90;;;;;;5032124;28;19925;-87
2022/10/25 10:25:33;;;;;;;;;;;14.20;99.90;;;;;;5031457;28;19932;-88
2022/10/25 10:27:59;;;;;;;;;;;14.30;99.90;;;;;;5047157;28;19925;-91
2022/10/25 10:30:36;;;;;;;;;;;12.30;99.90;;;;;;5035127;28;20438;-90
2022/10/25 10:33:02;;;;;;;;;;;15.50;99.90;;;;;;5033469;28;20331;-89
2022/10/25 10:35:29;;;;;;;;;;;13.70;99.90;;;;;;5040799;28;19928;-89
2022/10/25 10:38:14;;;;;;;;;;;14.70;99.90;;;;;;5046077;28;19924;-92
2022/10/25 10:40:39;;;;;;;;;;;13.10;99.90;;;;;;5044595;28;20523;-89
2022/10/25 10:43:21;;;;;;;;;;;14.80;99.90;;;;;;5034496;28;20289;-88
2022/10/25 10:45:48;;;;;;;;;;;14.90;99.90;;;;;;5012292;28;19935;-89
2022/10/25 10:48:23;;;;;;;;;;;14.80;99.90;;;;;;5034286;28;20289;-91
2022/10/25 10:50:52;;;;;;;;;;;16.60;99.90;;;;;;5054245;28;19974;-89
2022/10/25 10:53:24;;;;;;;;;;;15.30;99.90;;;;;;5036531;28;20028;-88
2022/10/25 10:55:51;;;;;;;;;;;15.20;99.90;;;;;;5052734;28;20087;-88
2022/10/25 10:58:24;;;;;;;;;;;16.40;99.90;;;;;;5037999;28;19925;-88
2022/10/25 11:01:01;;;;;;;;;;;15.30;99.90;;;;;;5053229;28;19925;-88
2022/10/25 11:03:41;;;;;;;;;;;15.50;99.90;;;;;;5037542;28;19929;-88
2022/10/25 11:06:19;;;;;;;;;;;15.40;99.90;;;;;;5033353;28;19936;-89
2022/10/25 11:08:46;;;;;;;;;;;15.70;99.90;;;;;;5029640;28;19938;-89
2022/10/25 11:11:12;;;;;;;;;;;15.50;99.90;;;;;;5036998;28;19944;-88
2022/10/25 11:13:45;;;;;;;;;;;15.60;99.90;;;;;;5034845;28;20316;-88
2022/10/25 11:16:58;;;;;;;;;;;15.50;99.90;;;;;;5038043;28;20400;-89
2022/10/25 11:19:45;;;;;;;;;;;15.30;99.90;;;;;;5010920;28;19937;-89
2022/10/25 11:22:29;;;;;;;;;;;15.30;99.90;;;;;;5001307;28;19926;-88
2022/10/25 11:25:21;;;;;;;;;;;15.70;99.90;;;;;;5037825;28;20403;-90
2022/10/25 11:27:58;;;;;;;;;;;15.20;99.90;;;;;;5010867;28;20276;-87
2022/10/25 11:30:34;;;;;;;;;;;15.20;99.90;;;;;;5035003;28;20024;-88
2022/10/25 11:33:03;;;;;;;;;;;15.30;99.90;;;;;;5030741;28;19939;-88
2022/10/25 11:36:00;;;;;;;;;;;15.30;99.90;;;;;;5034758;28;19948;-87
2022/10/25 11:38:35;;;;;;;;;;;15.90;99.90;;;;;;5031378;28;20152;-89
2022/10/25 11:41:04;;;;;;;;;;;15.50;99.90;;;;;;5038026;28;20431;-88
2022/10/25 11:43:54;;;;;;;;;;;15.40;99.90;;;;;;5038736;28;19925;-88
2022/10/25 11:46:19;;;;;;;;;;;15.50;99.90;;;;;;5037572;28;20272;-88
2022/10/25 11:48:59;;;;;;;;;;;15.40;99.90;;;;;;5036960;28;19986;-87
2022/10/25 11:51:48;;;;;;;;;;;15.80;99.90;;;;;;5034533;28;19987;-88
2022/10/25 11:54:35;;;;;;;;;;;;;;;;;;;;;
2022/10/25 11:57:19;;;;;;;;;;;15.70;99.90;;;;;;5053079;28;19925;-88
2022/10/25 12:00:03;;;;;;;;;;;15.20;99.90;;;;;;5051834;28;19924;-88
2022/10/25 12:02:32;;;;;;;;;;;15.90;99.90;;;;;;5036745;28;20046;-87
2022/10/25 12:05:00;;;;;;;;;;;16.20;99.90;;;;;;5036474;28;20242;-89
2022/10/25 12:07:36;;;;;;;;;;;14.50;99.90;;;;;;5052062;28;19925;-90
2022/10/25 12:10:21;;;;;;;;;;;16.30;99.90;;;;;;5037173;28;19932;-88
2022/10/25 12:13:13;;;;;;;;;;;16.20;99.90;;;;;;5051701;28;20404;-88
2022/10/25 12:15:45;;;;;;;;;;;16.50;99.90;;;;;;5048236;28;19975;-87
2022/10/25 12:18:41;;;;;;;;;;;17.00;99.90;;;;;;5050596;28;19940;-87
2022/10/25 12:21:08;;;;;;;;;;;16.30;99.90;;;;;;5031798;28;20356;-88
2022/10/25 12:23:45;;;;;;;;;;;16.50;99.90;;;;;;5051717;28;19924;-88
2022/10/25 12:26:24;;;;;;;;;;;16.60;99.90;;;;;;5037009;28;19924;-88
2022/10/25 12:28:50;;;;;;;;;;;15.60;99.90;;;;;;5034787;28;19970;-88
2022/10/25 12:31:23;;;;;;;;;;;16.20;99.90;;;;;;5036452;28;19925;-89
2022/10/25 12:33:54;;;;;;;;;;;16.10;99.90;;;;;;5043362;28;19925;-88
2022/10/25 12:36:40;;;;;;;;;;;16.00;99.90;;;;;;5033964;28;19950;-87
2022/10/25 12:39:12;;;;;;;;;;;16.10;99.90;;;;;;5029696;28;19925;-88
2022/10/25 12:41:43;;;;;;;;;;;16.60;99.90;;;;;;5036591;28;20289;-87
2022/10/25 12:44:14;;;;;;;;;;;16.20;99.90;;;;;;5046677;28;20372;-87
2022/10/25 12:46:54;;;;;;;;;;;16.50;99.90;;;;;;5036282;28;20050;-88
2022/10/25 12:49:19;;;;;;;;;;;17.10;99.90;;;;;;5036037;28;19924;-89
2022/10/25 12:52:05;;;;;;;;;;;16.70;99.90;;;;;;5052909;28;19925;-87
2022/10/25 12:54:36;;;;;;;;;;;16.70;99.90;;;;;;5036250;28;19925;-88
2022/10/25 12:57:13;;;;;;;;;;;16.70;99.90;;;;;;5053938;28;20266;-88
2022/10/25 12:59:52;;;;;;;;;;;16.20;99.90;;;;;;5043091;28;19925;-88
2022/10/25 13:02:37;;;;;;;;;;;16.70;99.90;;;;;;5036440;28;19925;-88
2022/10/25 13:05:05;;;;;;;;;;;16.50;99.90;;;;;;5037482;28;19929;-88
2022/10/25 13:07:39;;;;;;;;;;;16.70;99.90;;;;;;5034404;28;19931;-89
2022/10/25 13:10:06;;;;;;;;;;;14.70;99.90;;;;;;5026198;28;19980;-89
2022/10/25 13:12:32;;;;;;;;;;;16.20;99.90;;;;;;5034554;28;19932;-87
2022/10/25 13:14:58;;;;;;;;;;;16.50;99.90;;;;;;5052084;28;19936;-86
2022/10/25 13:17:24;;;;;;;;;;;16.60;99.90;;;;;;5034732;28;19925;-90
2022/10/25 13:19:53;;;;;;;;;;;16.50;99.90;;;;;;5030831;28;20391;-87
2022/10/25 13:22:30;;;;;;;;;;;18.10;99.90;;;;;;5033818;28;19929;-87
2022/10/25 13:25:00;;;;;;;;;;;16.30;99.90;;;;;;5034321;28;20012;-88
2022/10/25 13:27:27;;;;;;;;;;;16.10;99.90;;;;;;5034977;28;19968;-88
2022/10/25 13:29:59;;;;;;;;;;;16.10;99.90;;;;;;5052187;28;20339;-87
2022/10/25 13:32:28;;;;;;;;;;;16.20;99.90;;;;;;5050793;28;20332;-87
2022/10/25 13:34:57;;;;;;;;;;;16.40;99.90;;;;;;5032430;28;19925;-86
2022/10/25 13:37:29;;;;;;;;;;;16.10;99.90;;;;;;5032279;28;19929;-89
2022/10/25 13:40:04;;;;;;;;;;;16.30;99.90;;;;;;5031345;28;19931;-88
2022/10/25 13:42:31;;;;;;;;;;;16.10;99.90;;;;;;5017157;28;19932;-88
2022/10/25 13:44:58;;;;;;;;;;;14.90;99.90;;;;;;5033574;28;19928;-88
2022/10/25 13:47:47;;;;;;;;;;;16.30;99.90;;;;;;5033368;28;20012;-88
2022/10/25 13:50:12;;;;;;;;;;;16.00;99.90;;;;;;5045601;28;19931;-88
2022/10/25 13:52:43;;;;;;;;;;;15.90;99.90;;;;;;5031331;28;19928;-87
2022/10/25 13:55:13;;;;;;;;;;;16.10;99.90;;;;;;5033590;28;19959;-89
2022/10/25 13:57:48;;;;;;;;;;;16.40;99.90;;;;;;5029652;28;19936;-87
2022/10/25 14:00:19;;;;;;;;;;;16.20;99.90;;;;;;5047346;28;19924;-87
2022/10/25 14:03:05;;;;;;;;;;;16.30;99.90;;;;;;5032447;28;19925;-87
2022/10/25 14:05:49;;;;;;;;;;;16.00;99.90;;;;;;5046605;28;19925;-87
2022/10/25 14:08:21;;;;;;;;;;;15.90;99.90;;;;;;5031567;28;19932;-88
2022/10/25 14:10:53;;;;;;;;;;;15.80;99.90;;;;;;5033215;28;19971;-88
2022/10/25 14:13:29;;;;;;;;;;;15.70;99.90;;;;;;5050429;28;20313;-88
2022/10/25 14:16:01;;;;;;;;;;;15.70;99.90;;;;;;5033232;28;19925;-88
2022/10/25 14:18:28;;;;;;;;;;;15.40;99.90;;;;;;5030903;28;19929;-87
2022/10/25 14:21:08;;;;;;;;;;;17.10;99.90;;;;;;5047093;28;20059;-88
2022/10/25 14:23:36;;;;;;;;;;;15.60;99.90;;;;;;5033474;28;19968;-88
2022/10/25 14:26:22;;;;;;;;;;;;;;;;;;;;;
2022/10/25 14:28:50;;;;;;;;;;;14.20;99.90;;;;;;5055114;28;20027;-89
2022/10/25 14:31:22;;;;;;;;;;;15.50;99.90;;;;;;5039063;28;19924;-88
2022/10/25 14:33:52;;;;;;;;;;;15.20;99.90;;;;;;5037894;28;20296;-89
2022/10/25 14:36:20;;;;;;;;;;;15.50;99.90;;;;;;5038941;28;20035;-89
2022/10/25 14:38:51;;;;;;;;;;;15.30;99.90;;;;;;5037335;28;19935;-88
2022/10/25 14:41:31;;;;;;;;;;;15.80;99.90;;;;;;5035525;28;19925;-88
2022/10/25 14:43:57;;;;;;;;;;;15.60;99.90;;;;;;5037958;28;19925;-87
2022/10/25 14:46:25;;;;;;;;;;;15.40;99.90;;;;;;5036624;28;20373;-88
2022/10/25 14:48:55;;;;;;;;;;;14.50;99.90;;;;;;5021903;28;19968;-88
2022/10/25 14:51:21;;;;;;;;;;;15.40;99.90;;;;;;5038769;28;19924;-87
2022/10/25 14:53:52;;;;;;;;;;;15.50;99.90;;;;;;5037067;28;19955;-88
2022/10/25 14:56:23;;;;;;;;;;;15.70;99.90;;;;;;5038664;28;20364;-88
2022/10/25 14:58:51;;;;;;;;;;;15.60;99.90;;;;;;5041661;28;19925;-87
2022/10/25 15:01:18;;;;;;;;;;;15.80;99.90;;;;;;5030303;28;20283;-89
2022/10/25 15:03:45;;;;;;;;;;;15.50;99.90;;;;;;5044319;28;19929;-89
2022/10/25 15:06:12;;;;;;;;;;;15.60;99.90;;;;;;5044226;28;20389;-89
2022/10/25 15:08:43;;;;;;;;;;;15.50;99.90;;;;;;5037357;28;20019;-88
2022/10/25 15:11:14;;;;;;;;;;;15.50;99.90;;;;;;5035967;28;19925;-89
2022/10/25 15:13:41;;;;;;;;;;;13.50;99.90;;;;;;5037333;28;20007;-89
2022/10/25 15:16:35;;;;;;;;;;;15.10;99.90;;;;;;5039002;28;19928;-89
2022/10/25 15:19:20;;;;;;;;;;;15.20;99.90;;;;;;5034954;28;19933;-89
2022/10/25 15:21:48;;;;;;;;;;;15.50;99.90;;;;;;5030821;28;19931;-89
2022/10/25 15:24:19;;;;;;;;;;;15.20;99.90;;;;;;5049336;28;19936;-89
2022/10/25 15:27:00;;;;;;;;;;;13.70;99.90;;;;;;5034559;28;20304;-89
2022/10/25 15:29:44;;;;;;;;;;;14.90;99.90;;;;;;5049953;28;19983;-88
2022/10/25 15:32:25;;;;;;;;;;;13.90;99.90;;;;;;5036299;28;20024;-89
2022/10/25 15:34:52;;;;;;;;;;;14.70;99.90;;;;;;5033505;28;20242;-89
2022/10/25 15:40:13;;;;;;;;;;;14.50;99.90;;;;;;5032365;28;19933;-89
2022/10/25 15:42:45;;;;;;;;;;;14.70;99.90;;;;;;5029791;28;19931;-89
2022/10/25 15:45:17;;;;;;;;;;;13.10;99.90;;;;;;5035208;28;19932;-89
2022/10/25 15:47:43;;;;;;;;;;;14.60;99.90;;;;;;5033752;28;19925;-89
2022/10/25 15:50:16;;;;;;;;;;;14.50;99.90;;;;;;5040889;28;19925;-89
2022/10/25 15:52:44;;;;;;;;;;;14.60;99.90;;;;;;5036509;28;19979;-89
2022/10/25 15:55:17;;;;;;;;;;;14.40;99.90;;;;;;5036260;28;19925;-89
2022/10/25 15:58:02;;;;;;;;;;;12.70;99.90;;;;;;5027794;28;19932;-89